createdAt,value
2022-12-27T00:00:35.066Z,6.97
2022-12-27T00:01:37.103Z,6.97
2022-12-27T00:02:38.674Z,7.08
2022-12-27T00:03:40.826Z,7.11
2022-12-27T00:04:42.327Z,7.08
2022-12-27T00:05:45.658Z,7.17
2022-12-27T00:06:47.368Z,6.99
2022-12-27T00:07:48.829Z,7.04
2022-12-27T00:08:50.813Z,7.08
2022-12-27T00:09:53.667Z,6.85
2022-12-27T00:10:55.500Z,6.80
2022-12-27T00:11:59.937Z,6.84
2022-12-27T00:13:01.704Z,6.80
2022-12-27T00:14:05.302Z,6.75
2022-12-27T00:15:07.398Z,6.59
2022-12-27T00:16:12.926Z,6.69
2022-12-27T00:17:14.410Z,6.60
2022-12-27T00:18:15.828Z,6.65
2022-12-27T00:19:17.291Z,6.72
2022-12-27T00:20:18.731Z,6.68
2022-12-27T00:21:21.577Z,6.72
2022-12-27T00:22:23.078Z,6.69
2022-12-27T00:23:24.985Z,6.60
2022-12-27T00:24:26.524Z,6.58
2022-12-27T00:25:28.506Z,6.48
2022-12-27T00:26:31.867Z,6.44
2022-12-27T00:27:33.298Z,6.43
2022-12-27T00:28:35.636Z,6.36
2022-12-27T00:29:37.098Z,6.29
2022-12-27T00:30:38.855Z,6.17
2022-12-27T00:31:40.365Z,6.04
2022-12-27T00:32:41.846Z,6.13
2022-12-27T00:33:45.273Z,6.28
2022-12-27T00:34:46.675Z,6.30
2022-12-27T00:35:48.404Z,6.29
2022-12-27T00:36:49.863Z,6.32
2022-12-27T00:37:51.294Z,6.40
2022-12-27T00:38:53.959Z,6.38
2022-12-27T00:39:55.396Z,6.39
2022-12-27T00:40:57.159Z,6.45
2022-12-27T00:41:58.600Z,6.44
2022-12-27T00:43:00.089Z,6.40
2022-12-27T00:44:01.602Z,6.40
2022-12-27T00:45:03.117Z,6.43
2022-12-27T00:46:06.956Z,6.44
2022-12-27T00:47:08.481Z,6.40
2022-12-27T00:48:09.953Z,6.41
2022-12-27T00:49:11.426Z,6.38
2022-12-27T00:50:13.219Z,6.43
2022-12-27T00:51:18.063Z,6.49
2022-12-27T00:52:19.534Z,6.37
2022-12-27T00:53:20.940Z,6.40
2022-12-27T00:54:22.345Z,6.30
2022-12-27T00:55:24.196Z,6.27
2022-12-27T00:56:28.427Z,6.17
2022-12-27T00:57:29.844Z,6.16
2022-12-27T00:58:31.307Z,6.10
2022-12-27T00:59:32.743Z,6.10
2022-12-27T01:00:34.642Z,6.02
2022-12-27T01:01:36.899Z,6.08
2022-12-27T01:02:38.612Z,5.95
2022-12-27T01:03:40.433Z,5.87
2022-12-27T01:04:41.932Z,5.79
2022-12-27T01:05:43.791Z,5.80
2022-12-27T01:06:45.209Z,5.83
2022-12-27T01:07:46.638Z,5.89
2022-12-27T01:08:48.763Z,5.91
2022-12-27T01:09:50.771Z,5.96
2022-12-27T01:10:52.200Z,5.92
2022-12-27T01:11:53.651Z,6.02
2022-12-27T01:12:55.294Z,5.93
2022-12-27T01:14:01.977Z,5.87
2022-12-27T01:15:06.083Z,5.95
2022-12-27T01:16:14.710Z,5.91
2022-12-27T01:17:16.211Z,5.94
2022-12-27T01:18:17.697Z,5.99
2022-12-27T01:19:19.144Z,5.97
2022-12-27T01:20:20.991Z,5.98
2022-12-27T01:21:25.051Z,6.09
2022-12-27T01:22:26.546Z,6.19
2022-12-27T01:23:31.911Z,6.09
2022-12-27T01:24:34.784Z,6.02
2022-12-27T01:25:36.356Z,6.03
2022-12-27T01:26:37.793Z,6.06
2022-12-27T01:27:39.333Z,6.13
2022-12-27T01:28:40.806Z,6.08
2022-12-27T01:29:42.753Z,6.01
2022-12-27T01:30:44.379Z,6.08
2022-12-27T01:31:45.975Z,5.99
2022-12-27T01:32:47.407Z,6.04
2022-12-27T01:33:49.184Z,6.06
2022-12-27T01:34:51.369Z,6.10
2022-12-27T01:35:52.785Z,6.12
2022-12-27T01:36:54.195Z,6.17
2022-12-27T01:37:55.627Z,6.20
2022-12-27T01:38:58.458Z,6.19
2022-12-27T01:39:59.874Z,6.14
2022-12-27T01:41:21.276Z,6.10
2022-12-27T01:42:41.388Z,5.97
2022-12-27T01:43:42.788Z,5.93
2022-12-27T01:44:50.221Z,5.92
2022-12-27T01:45:51.732Z,5.98
2022-12-27T01:46:53.219Z,5.95
2022-12-27T01:48:11.483Z,5.94
2022-12-27T01:49:12.905Z,5.89
2022-12-27T01:50:27.201Z,5.92
2022-12-27T01:51:28.644Z,5.93
2022-12-27T01:52:41.262Z,5.94
2022-12-27T01:53:47.777Z,5.83
2022-12-27T01:54:49.220Z,5.83
2022-12-27T01:56:01.682Z,5.86
2022-12-27T01:57:04.396Z,5.94
2022-12-27T01:58:52.389Z,5.94
2022-12-27T01:59:53.902Z,5.97
2022-12-27T02:00:56.886Z,5.97
2022-12-27T02:01:58.509Z,5.96
2022-12-27T02:03:03.506Z,5.85
2022-12-27T02:04:09.216Z,5.88
2022-12-27T02:05:13.191Z,5.80
2022-12-27T02:06:16.055Z,5.74
2022-12-27T02:07:20.519Z,5.82
2022-12-27T02:08:40.584Z,5.80
2022-12-27T02:09:48.098Z,5.77
2022-12-27T02:10:50.546Z,5.75
2022-12-27T02:11:56.814Z,5.67
2022-12-27T02:12:59.466Z,5.64
2022-12-27T02:14:01.908Z,5.66
2022-12-27T02:15:04.564Z,5.77
2022-12-27T02:16:19.017Z,5.80
2022-12-27T02:17:24.157Z,5.78
2022-12-27T02:18:25.778Z,5.76
2022-12-27T02:19:39.350Z,5.68
2022-12-27T02:21:02.882Z,5.58
2022-12-27T02:22:14.242Z,5.62
2022-12-27T02:24:03.370Z,5.56
2022-12-27T02:25:25.382Z,5.52
2022-12-27T02:26:44.893Z,5.56
2022-12-27T02:28:23.642Z,5.57
2022-12-27T02:29:37.833Z,5.62
2022-12-27T02:30:40.296Z,5.62
2022-12-27T02:31:54.225Z,5.65
2022-12-27T02:33:02.027Z,5.64
2022-12-27T02:34:10.330Z,5.62
2022-12-27T02:35:30.510Z,5.61
2022-12-27T02:36:35.697Z,5.63
2022-12-27T02:37:47.217Z,5.64
2022-12-27T02:38:53.792Z,5.57
2022-12-27T02:40:18.739Z,5.55
2022-12-27T02:41:38.992Z,5.64
2022-12-27T02:42:59.332Z,5.62
2022-12-27T02:44:19.235Z,5.59
2022-12-27T02:45:43.489Z,5.47
2022-12-27T02:47:04.454Z,5.51
2022-12-27T02:48:31.996Z,5.51
2022-12-27T02:49:54.869Z,5.53
2022-12-27T02:51:34.614Z,5.47
2022-12-27T02:53:00.775Z,5.50
2022-12-27T02:54:32.951Z,5.48
2022-12-27T02:56:05.380Z,5.35
2022-12-27T02:57:13.144Z,5.33
2022-12-27T02:58:22.008Z,5.37
2022-12-27T02:59:59.438Z,5.36
2022-12-27T03:01:42.567Z,5.34
2022-12-27T03:03:20.909Z,5.36
2022-12-27T03:04:49.944Z,5.42
2022-12-27T03:06:29.207Z,5.45
2022-12-27T03:07:51.596Z,5.43
2022-12-27T03:09:49.354Z,5.36
2022-12-27T03:11:18.531Z,5.27
2022-12-27T03:13:06.147Z,5.21
2022-12-27T03:14:37.305Z,5.10
2022-12-27T03:15:57.469Z,5.09
2022-12-27T03:17:06.543Z,5.06
2022-12-27T03:18:15.750Z,4.93
2022-12-27T03:19:37.714Z,4.92
2022-12-27T03:21:01.390Z,4.87
2022-12-27T03:22:22.415Z,4.85
2022-12-27T03:23:44.856Z,4.68
2022-12-27T03:25:06.168Z,4.62
2022-12-27T03:26:09.912Z,4.63
2022-12-27T03:27:22.490Z,4.68
2022-12-27T03:28:47.057Z,4.53
2022-12-27T03:30:10.498Z,4.50
2022-12-27T03:31:42.329Z,4.46
2022-12-27T03:33:14.373Z,4.46
2022-12-27T03:34:36.001Z,4.43
2022-12-27T03:35:43.327Z,4.40
2022-12-27T03:37:03.407Z,4.43
2022-12-27T03:38:07.200Z,4.43
2022-12-27T03:39:28.355Z,4.29
2022-12-27T03:41:15.216Z,4.26
2022-12-27T03:42:44.271Z,4.21
2022-12-27T03:43:45.805Z,4.24
2022-12-27T03:44:47.791Z,4.30
2022-12-27T03:46:36.082Z,4.22
2022-12-27T03:47:54.545Z,4.29
2022-12-27T03:49:38.888Z,4.35
2022-12-27T03:50:48.875Z,4.39
2022-12-27T03:52:11.776Z,4.34
2022-12-27T03:53:31.781Z,4.29
2022-12-27T03:54:36.871Z,4.25
2022-12-27T03:55:39.058Z,4.20
2022-12-27T03:56:42.576Z,4.25
2022-12-27T03:57:44.196Z,4.32
2022-12-27T03:58:45.734Z,4.38
2022-12-27T03:59:47.857Z,4.39
2022-12-27T04:00:49.369Z,4.35
2022-12-27T04:01:50.908Z,4.33
2022-12-27T04:02:52.535Z,4.24
2022-12-27T04:03:54.140Z,4.14
2022-12-27T04:04:55.911Z,4.16
2022-12-27T04:05:57.325Z,4.14
2022-12-27T04:06:58.788Z,4.14
2022-12-27T04:08:18.495Z,4.18
2022-12-27T04:09:38.812Z,4.15
2022-12-27T04:10:58.915Z,4.01
2022-12-27T04:12:18.807Z,4.01
2022-12-27T04:13:38.873Z,4.07
2022-12-27T04:14:59.548Z,3.98
2022-12-27T04:16:19.420Z,3.97
2022-12-27T04:17:39.446Z,3.90
2022-12-27T04:18:59.306Z,3.90
2022-12-27T04:20:19.094Z,3.90
2022-12-27T04:21:38.831Z,3.92
2022-12-27T04:22:58.533Z,3.94
2022-12-27T04:24:18.416Z,3.91
2022-12-27T04:25:38.580Z,3.89
2022-12-27T04:26:58.443Z,3.92
2022-12-27T04:28:18.203Z,3.94
2022-12-27T04:29:38.158Z,3.94
2022-12-27T04:30:58.358Z,3.96
2022-12-27T04:32:18.103Z,3.98
2022-12-27T04:33:37.888Z,3.94
2022-12-27T04:34:45.096Z,3.92
2022-12-27T04:35:46.837Z,3.92
2022-12-27T04:36:48.556Z,3.94
2022-12-27T04:37:50.030Z,3.94
2022-12-27T04:38:51.457Z,3.97
2022-12-27T04:40:11.371Z,3.96
2022-12-27T04:41:31.284Z,4.05
2022-12-27T04:42:51.101Z,4.05
2022-12-27T04:44:10.915Z,4.08
2022-12-27T04:45:31.441Z,4.08
2022-12-27T04:46:51.856Z,4.08
2022-12-27T04:48:11.945Z,4.06
2022-12-27T04:49:39.405Z,3.96
2022-12-27T04:50:59.617Z,4.05
2022-12-27T04:52:19.914Z,4.09
2022-12-27T04:53:40.205Z,4.09
2022-12-27T04:54:56.861Z,4.02
2022-12-27T04:55:58.538Z,3.97
2022-12-27T04:56:59.945Z,3.99
2022-12-27T04:58:01.424Z,3.93
2022-12-27T04:59:21.502Z,3.91
2022-12-27T05:00:44.614Z,3.93
2022-12-27T05:02:04.238Z,4.04
2022-12-27T05:03:16.505Z,3.96
2022-12-27T05:04:19.080Z,3.95
2022-12-27T05:05:21.884Z,3.97
2022-12-27T05:06:23.324Z,3.95
2022-12-27T05:07:43.573Z,3.98
2022-12-27T05:09:03.802Z,3.73
2022-12-27T05:10:25.228Z,3.83
2022-12-27T05:11:45.083Z,3.91
2022-12-27T05:13:04.897Z,3.87
2022-12-27T05:14:10.790Z,3.72
2022-12-27T05:15:12.224Z,3.76
2022-12-27T05:16:14.928Z,3.66
2022-12-27T05:17:16.358Z,3.64
2022-12-27T05:18:17.816Z,3.68
2022-12-27T05:19:19.274Z,3.64
2022-12-27T05:20:21.045Z,3.59
2022-12-27T05:21:22.654Z,3.47
2022-12-27T05:22:42.898Z,3.53
2022-12-27T05:24:05.717Z,3.58
2022-12-27T05:25:28.177Z,3.58
2022-12-27T05:26:31.097Z,3.59
2022-12-27T05:27:32.542Z,3.62
2022-12-27T05:28:33.999Z,3.66
2022-12-27T05:29:36.036Z,3.66
2022-12-27T05:30:41.101Z,3.67
2022-12-27T05:31:42.672Z,3.68
2022-12-27T05:32:44.313Z,3.72
2022-12-27T05:33:45.879Z,3.72
2022-12-27T05:34:47.291Z,3.73
2022-12-27T05:35:48.716Z,3.69
2022-12-27T05:36:50.155Z,3.72
2022-12-27T05:37:55.149Z,3.75
2022-12-27T05:38:58.625Z,3.81
2022-12-27T05:40:00.052Z,3.80
2022-12-27T05:41:02.838Z,3.65
2022-12-27T05:42:04.426Z,3.59
2022-12-27T05:43:05.910Z,3.60
2022-12-27T05:44:07.836Z,3.54
2022-12-27T05:45:09.476Z,3.53
2022-12-27T05:46:17.507Z,3.39
2022-12-27T05:47:19.015Z,3.35
2022-12-27T05:48:21.603Z,3.34
2022-12-27T05:49:23.044Z,3.36
2022-12-27T05:50:24.883Z,3.42
2022-12-27T05:51:26.337Z,3.46
2022-12-27T05:52:29.638Z,3.45
2022-12-27T05:53:31.054Z,3.46
2022-12-27T05:54:32.482Z,3.42
2022-12-27T05:55:33.944Z,3.45
2022-12-27T05:56:37.257Z,3.51
2022-12-27T05:57:39.164Z,3.40
2022-12-27T05:58:41.105Z,3.42
2022-12-27T05:59:42.552Z,3.46
2022-12-27T06:00:44.378Z,3.42
2022-12-27T06:01:46.015Z,3.43
2022-12-27T06:02:47.757Z,3.42
2022-12-27T06:03:49.281Z,3.45
2022-12-27T06:04:50.709Z,3.41
2022-12-27T06:05:52.695Z,3.44
2022-12-27T06:06:54.197Z,3.51
2022-12-27T06:07:55.679Z,3.48
2022-12-27T06:08:57.515Z,3.43
2022-12-27T06:09:58.922Z,3.47
2022-12-27T06:11:11.576Z,3.49
2022-12-27T06:12:12.967Z,3.57
2022-12-27T06:13:14.413Z,3.58
2022-12-27T06:14:15.835Z,3.58
2022-12-27T06:15:17.253Z,3.41
2022-12-27T06:16:20.667Z,3.48
2022-12-27T06:17:22.093Z,3.50
2022-12-27T06:18:23.493Z,3.44
2022-12-27T06:19:25.027Z,3.41
2022-12-27T06:20:27.442Z,3.37
2022-12-27T06:21:28.924Z,3.33
2022-12-27T06:22:30.325Z,3.28
2022-12-27T06:23:34.389Z,3.23
2022-12-27T06:24:35.808Z,3.30
2022-12-27T06:25:40.380Z,3.36
2022-12-27T06:26:42.804Z,3.36
2022-12-27T06:27:44.313Z,3.40
2022-12-27T06:28:45.812Z,3.32
2022-12-27T06:29:47.217Z,3.34
2022-12-27T06:30:49.448Z,3.29
2022-12-27T06:31:51.085Z,3.34
2022-12-27T06:32:52.518Z,3.30
2022-12-27T06:33:54.710Z,3.30
2022-12-27T06:34:56.152Z,3.28
2022-12-27T06:35:59.186Z,3.33
2022-12-27T06:37:00.552Z,3.33
2022-12-27T06:38:01.955Z,3.41
2022-12-27T06:39:03.514Z,3.45
2022-12-27T06:40:05.579Z,3.46
2022-12-27T06:41:12.646Z,3.44
2022-12-27T06:42:14.085Z,3.40
2022-12-27T06:43:15.588Z,3.42
2022-12-27T06:44:16.988Z,3.28
2022-12-27T06:45:18.563Z,3.28
2022-12-27T06:46:20.440Z,3.35
2022-12-27T06:47:21.911Z,3.40
2022-12-27T06:48:24.212Z,3.36
2022-12-27T06:49:25.930Z,3.46
2022-12-27T06:50:27.475Z,3.54
2022-12-27T06:51:29.227Z,3.60
2022-12-27T06:52:30.645Z,3.62
2022-12-27T06:53:32.083Z,3.66
2022-12-27T06:54:33.580Z,3.64
2022-12-27T06:55:34.992Z,3.68
2022-12-27T06:56:37.291Z,3.68
2022-12-27T06:57:38.699Z,3.66
2022-12-27T06:58:40.113Z,3.64
2022-12-27T06:59:41.540Z,3.68
2022-12-27T07:00:43.060Z,3.63
2022-12-27T07:01:44.875Z,3.59
2022-12-27T07:02:46.400Z,3.57
2022-12-27T07:03:51.876Z,3.59
2022-12-27T07:04:53.311Z,3.59
2022-12-27T07:05:54.704Z,3.60
2022-12-27T07:06:56.163Z,3.60
2022-12-27T07:07:57.621Z,3.64
2022-12-27T07:09:00.740Z,3.63
2022-12-27T07:10:02.765Z,3.71
2022-12-27T07:11:06.764Z,3.66
2022-12-27T07:12:08.214Z,3.68
2022-12-27T07:13:09.626Z,3.69
2022-12-27T07:14:11.126Z,3.77
2022-12-27T07:15:12.558Z,3.82
2022-12-27T07:16:16.968Z,3.77
2022-12-27T07:17:18.434Z,3.75
2022-12-27T07:18:19.893Z,3.73
2022-12-27T07:19:21.380Z,3.72
2022-12-27T07:20:22.832Z,3.68
2022-12-27T07:21:27.391Z,3.75
2022-12-27T07:22:28.846Z,3.79
2022-12-27T07:23:30.252Z,3.80
2022-12-27T07:24:33.268Z,3.76
2022-12-27T07:25:34.615Z,3.77
2022-12-27T07:26:36.420Z,3.75
2022-12-27T07:27:38.053Z,3.71
2022-12-27T07:28:40.409Z,3.71
2022-12-27T07:29:45.523Z,3.66
2022-12-27T07:30:47.331Z,3.67
2022-12-27T07:31:49.206Z,3.66
2022-12-27T07:32:50.746Z,3.66
2022-12-27T07:33:53.082Z,3.68
2022-12-27T07:34:54.621Z,3.66
2022-12-27T07:36:00.780Z,3.62
2022-12-27T07:37:02.255Z,3.69
2022-12-27T07:38:03.684Z,3.78
2022-12-27T07:39:06.619Z,3.80
2022-12-27T07:40:08.679Z,3.85
2022-12-27T07:41:11.478Z,3.75
2022-12-27T07:42:13.313Z,3.79
2022-12-27T07:43:14.727Z,3.87
2022-12-27T07:44:16.281Z,3.89
2022-12-27T07:45:17.971Z,3.96
2022-12-27T07:46:22.387Z,4.05
2022-12-27T07:47:23.807Z,4.05
2022-12-27T07:48:25.237Z,4.07
2022-12-27T07:49:26.641Z,4.11
2022-12-27T07:50:28.173Z,4.21
2022-12-27T07:51:30.440Z,4.22
2022-12-27T07:52:32.034Z,4.28
2022-12-27T07:53:33.843Z,4.28
2022-12-27T07:54:35.330Z,4.30
2022-12-27T07:55:36.777Z,4.37
2022-12-27T07:56:38.595Z,4.41
2022-12-27T07:57:40.114Z,4.41
2022-12-27T07:58:43.897Z,4.44
2022-12-27T07:59:45.321Z,4.45
2022-12-27T08:00:49.200Z,4.40
2022-12-27T08:02:06.065Z,4.37
2022-12-27T08:03:07.740Z,4.30
2022-12-27T08:04:09.195Z,4.23
2022-12-27T08:05:10.688Z,4.24
2022-12-27T08:06:38.174Z,4.27
2022-12-27T08:07:41.284Z,4.30
2022-12-27T08:08:44.536Z,4.27
2022-12-27T08:09:47.378Z,4.24
2022-12-27T08:10:48.891Z,4.20
2022-12-27T08:11:50.666Z,4.24
2022-12-27T08:12:52.071Z,4.21
2022-12-27T08:13:53.925Z,4.30
2022-12-27T08:14:55.395Z,4.36
2022-12-27T08:15:56.871Z,4.36
2022-12-27T08:17:05.504Z,4.41
2022-12-27T08:18:07.088Z,4.34
2022-12-27T08:19:08.825Z,4.33
2022-12-27T08:20:14.674Z,4.39
2022-12-27T08:21:16.699Z,4.44
2022-12-27T08:22:18.727Z,4.23
2022-12-27T08:23:20.431Z,4.29
2022-12-27T08:24:21.907Z,4.31
2022-12-27T08:25:23.454Z,4.13
2022-12-27T08:26:25.248Z,4.14
2022-12-27T08:27:26.958Z,4.22
2022-12-27T08:28:31.503Z,4.24
2022-12-27T08:29:33.331Z,4.30
2022-12-27T08:30:35.096Z,4.18
2022-12-27T08:31:36.854Z,4.31
2022-12-27T08:32:38.304Z,4.32
2022-12-27T08:33:41.855Z,4.32
2022-12-27T08:34:43.337Z,4.35
2022-12-27T08:35:54.320Z,4.44
2022-12-27T08:36:57.009Z,4.41
2022-12-27T08:38:02.295Z,4.32
2022-12-27T08:39:03.818Z,4.34
2022-12-27T08:40:05.775Z,4.36
2022-12-27T08:41:07.583Z,4.38
2022-12-27T08:42:13.139Z,4.41
2022-12-27T08:43:14.741Z,4.37
2022-12-27T08:44:16.170Z,4.37
2022-12-27T08:45:17.590Z,4.46
2022-12-27T08:46:19.932Z,4.49
2022-12-27T08:47:22.804Z,4.52
2022-12-27T08:48:24.242Z,4.60
2022-12-27T08:49:25.724Z,4.60
2022-12-27T08:50:28.801Z,4.56
2022-12-27T08:51:38.709Z,4.56
2022-12-27T08:52:44.695Z,4.47
2022-12-27T08:53:49.479Z,4.50
2022-12-27T08:54:50.986Z,4.52
2022-12-27T08:55:55.658Z,4.49
2022-12-27T08:56:57.097Z,4.30
2022-12-27T08:58:00.130Z,4.35
2022-12-27T08:59:01.514Z,4.49
2022-12-27T09:00:03.989Z,4.61
2022-12-27T09:01:10.202Z,4.65
2022-12-27T09:02:12.147Z,4.73
2022-12-27T09:03:14.273Z,4.81
2022-12-27T09:04:15.754Z,4.90
2022-12-27T09:05:17.604Z,4.98
2022-12-27T09:06:21.916Z,5.14
2022-12-27T09:07:23.329Z,5.26
2022-12-27T09:08:24.740Z,5.28
2022-12-27T09:09:26.183Z,5.37
2022-12-27T09:10:27.722Z,5.54
2022-12-27T09:11:32.136Z,5.47
2022-12-27T09:12:34.421Z,5.32
2022-12-27T09:13:35.871Z,5.52
2022-12-27T09:14:37.322Z,5.67
2022-12-27T09:15:46.241Z,5.73
2022-12-27T09:16:47.788Z,5.89
2022-12-27T09:17:49.254Z,6.02
2022-12-27T09:18:53.051Z,6.11
2022-12-27T09:19:54.774Z,5.88
2022-12-27T09:20:56.342Z,5.89
2022-12-27T09:21:57.745Z,5.91
2022-12-27T09:22:59.815Z,5.98
2022-12-27T09:24:01.228Z,6.13
2022-12-27T09:25:02.839Z,6.21
2022-12-27T09:26:13.851Z,6.30
2022-12-27T09:27:15.287Z,6.20
2022-12-27T09:28:16.675Z,6.11
2022-12-27T09:29:18.356Z,6.11
2022-12-27T09:30:20.104Z,6.14
2022-12-27T09:31:22.800Z,6.17
2022-12-27T09:32:27.412Z,6.24
2022-12-27T09:33:29.254Z,6.22
2022-12-27T09:34:30.771Z,6.22
2022-12-27T09:35:38.407Z,6.27
2022-12-27T09:36:41.053Z,6.34
2022-12-27T09:37:42.475Z,6.40
2022-12-27T09:38:44.877Z,6.41
2022-12-27T09:39:46.283Z,6.45
2022-12-27T09:40:56.850Z,6.50
2022-12-27T09:44:00.268Z,6.60
2022-12-27T09:45:39.940Z,6.63
2022-12-27T09:46:48.640Z,6.59
2022-12-27T09:48:03.327Z,6.58
2022-12-27T09:49:06.376Z,6.71
2022-12-27T09:50:13.865Z,6.78
2022-12-27T09:51:21.551Z,6.86
2022-12-27T09:52:29.814Z,6.96
2022-12-27T09:53:52.955Z,6.99
2022-12-27T09:55:04.992Z,6.88
2022-12-27T09:56:12.194Z,6.76
2022-12-27T09:57:37.498Z,6.82
2022-12-27T09:58:52.590Z,6.84
2022-12-27T09:59:59.380Z,6.96
2022-12-27T10:01:02.017Z,7.02
2022-12-27T10:02:21.346Z,7.00
2022-12-27T10:03:26.463Z,6.97
2022-12-27T10:04:52.992Z,6.98
2022-12-27T10:06:07.133Z,7.00
2022-12-27T10:07:31.619Z,6.96
2022-12-27T10:08:38.997Z,7.05
2022-12-27T10:09:58.825Z,6.87
2022-12-27T10:11:36.489Z,6.91
2022-12-27T10:13:00.095Z,6.94
2022-12-27T10:14:32.598Z,6.82
2022-12-27T10:15:52.486Z,6.95
2022-12-27T10:17:14.499Z,7.06
2022-12-27T10:18:30.702Z,7.00
2022-12-27T10:20:29.782Z,6.73
2022-12-27T10:21:37.698Z,6.85
2022-12-27T10:22:49.492Z,6.88
2022-12-27T10:24:01.419Z,6.83
2022-12-27T10:25:11.167Z,6.86
2022-12-27T10:26:17.902Z,6.91
2022-12-27T10:27:23.836Z,6.97
2022-12-27T10:28:43.315Z,7.02
2022-12-27T10:29:45.434Z,7.02
2022-12-27T10:30:46.926Z,7.10
2022-12-27T10:31:48.605Z,6.93
2022-12-27T10:32:50.839Z,6.89
2022-12-27T10:33:52.914Z,6.85
2022-12-27T10:35:04.672Z,6.92
2022-12-27T10:36:11.309Z,7.00
2022-12-27T10:37:16.606Z,7.01
2022-12-27T10:38:19.336Z,7.01
2022-12-27T10:39:29.022Z,7.16
2022-12-27T10:40:50.702Z,7.31
2022-12-27T10:42:18.324Z,7.37
2022-12-27T10:43:22.168Z,7.43
2022-12-27T10:44:24.077Z,7.53
2022-12-27T10:45:36.456Z,7.54
2022-12-27T10:46:38.987Z,7.44
2022-12-27T10:47:40.964Z,7.46
2022-12-27T10:49:19.974Z,7.48
2022-12-27T10:50:22.934Z,7.57
2022-12-27T10:51:27.228Z,7.67
2022-12-27T10:52:34.551Z,7.67
2022-12-27T10:53:54.210Z,7.73
2022-12-27T10:54:57.022Z,7.68
2022-12-27T10:56:24.810Z,7.76
2022-12-27T10:57:27.258Z,7.84
2022-12-27T10:58:31.247Z,7.93
2022-12-27T10:59:32.743Z,7.89
2022-12-27T11:00:34.324Z,8.17
2022-12-27T11:01:35.932Z,8.34
2022-12-27T11:02:56.130Z,8.78
2022-12-27T11:04:19.716Z,8.34
2022-12-27T11:05:30.594Z,8.33
2022-12-27T11:06:32.428Z,8.30
2022-12-27T11:07:35.060Z,8.08
2022-12-27T11:08:36.805Z,8.02
2022-12-27T11:09:50.416Z,8.08
2022-12-27T11:11:13.262Z,8.07
2022-12-27T11:12:36.240Z,8.10
2022-12-27T11:13:37.729Z,7.95
2022-12-27T11:14:40.216Z,7.78
2022-12-27T11:15:44.787Z,7.76
2022-12-27T11:16:48.911Z,7.74
2022-12-27T11:17:53.757Z,7.73
2022-12-27T11:18:57.900Z,7.76
2022-12-27T11:20:03.069Z,7.69
2022-12-27T11:21:04.626Z,7.70
2022-12-27T11:22:08.411Z,7.51
2022-12-27T11:23:09.736Z,7.34
2022-12-27T11:24:16.247Z,7.37
2022-12-27T11:25:18.183Z,7.52
2022-12-27T11:26:25.797Z,7.48
2022-12-27T11:27:29.549Z,7.47
2022-12-27T11:28:33.836Z,7.57
2022-12-27T11:29:45.897Z,7.62
2022-12-27T11:30:58.751Z,7.62
2022-12-27T11:32:07.418Z,7.68
2022-12-27T11:33:27.491Z,7.62
2022-12-27T11:34:35.009Z,7.68
2022-12-27T11:35:47.802Z,7.77
2022-12-27T11:36:53.282Z,7.81
2022-12-27T11:37:55.150Z,7.84
2022-12-27T11:38:58.486Z,7.93
2022-12-27T11:40:22.418Z,7.84
2022-12-27T11:41:34.782Z,7.89
2022-12-27T11:42:45.308Z,8.00
2022-12-27T11:43:56.067Z,8.11
2022-12-27T11:45:12.207Z,7.94
2022-12-27T11:46:30.791Z,8.02
2022-12-27T11:47:53.730Z,7.71
2022-12-27T11:48:58.347Z,7.78
2022-12-27T11:50:15.335Z,7.87
2022-12-27T11:51:38.372Z,7.94
2022-12-27T11:53:04.698Z,7.97
2022-12-27T11:54:12.366Z,7.95
2022-12-27T11:55:38.291Z,7.88
2022-12-27T11:56:45.332Z,7.79
2022-12-27T11:58:12.718Z,7.67
2022-12-27T11:59:39.098Z,7.74
2022-12-27T12:01:00.561Z,7.78
2022-12-27T12:02:48.625Z,7.90
2022-12-27T12:04:21.442Z,7.84
2022-12-27T12:05:45.527Z,7.83
2022-12-27T12:07:11.319Z,7.85
2022-12-27T12:08:46.696Z,7.96
2022-12-27T12:10:29.762Z,8.02
2022-12-27T12:11:54.932Z,8.02
2022-12-27T12:13:41.548Z,8.10
2022-12-27T12:15:06.892Z,8.07
2022-12-27T12:16:26.891Z,8.07
2022-12-27T12:18:06.800Z,8.17
2022-12-27T12:19:21.670Z,8.24
2022-12-27T12:20:47.031Z,8.28
2022-12-27T12:22:13.523Z,8.16
2022-12-27T12:23:42.616Z,8.15
2022-12-27T12:25:09.312Z,8.29
2022-12-27T12:26:23.858Z,8.26
2022-12-27T12:27:47.302Z,8.33
2022-12-27T12:29:11.129Z,8.26
2022-12-27T12:30:36.268Z,8.30
2022-12-27T12:31:43.821Z,8.23
2022-12-27T12:32:59.237Z,8.23
2022-12-27T12:34:36.937Z,8.30
2022-12-27T12:36:00.093Z,8.30
2022-12-27T12:37:23.486Z,8.34
2022-12-27T12:38:38.307Z,8.31
2022-12-27T12:40:02.586Z,8.20
2022-12-27T12:41:10.316Z,8.20
2022-12-27T12:42:49.537Z,8.29
2022-12-27T12:44:12.060Z,8.39
2022-12-27T12:45:31.773Z,8.53
2022-12-27T12:46:37.979Z,8.57
2022-12-27T12:48:07.824Z,8.34
2022-12-27T12:49:25.255Z,7.99
2022-12-27T12:50:41.440Z,8.10
2022-12-27T12:51:54.297Z,8.19
2022-12-27T12:53:04.154Z,8.17
2022-12-27T12:54:11.992Z,8.24
2022-12-27T12:55:26.980Z,8.28
2022-12-27T12:56:45.896Z,7.99
2022-12-27T12:58:13.551Z,8.05
2022-12-27T12:59:27.837Z,8.01
2022-12-27T13:00:51.213Z,8.01
2022-12-27T13:02:24.791Z,7.98
2022-12-27T13:03:43.385Z,8.03
2022-12-27T13:05:06.011Z,8.18
2022-12-27T13:06:17.428Z,8.13
2022-12-27T13:07:40.492Z,8.22
2022-12-27T13:08:58.227Z,8.33
2022-12-27T13:10:14.445Z,8.27
2022-12-27T13:11:42.966Z,8.42
2022-12-27T13:13:21.757Z,8.27
2022-12-27T13:14:25.871Z,8.40
2022-12-27T13:15:50.229Z,8.46
2022-12-27T13:16:51.685Z,8.54
2022-12-27T13:18:09.013Z,8.60
2022-12-27T13:19:41.040Z,8.10
2022-12-27T13:21:03.887Z,7.77
2022-12-27T13:22:26.097Z,8.07
2022-12-27T13:23:55.227Z,8.14
2022-12-27T13:25:26.424Z,8.37
2022-12-27T13:26:50.490Z,8.46
2022-12-27T13:28:02.388Z,8.60
2022-12-27T13:29:27.777Z,8.72
2022-12-27T13:30:37.173Z,8.82
2022-12-27T13:31:59.404Z,8.71
2022-12-27T13:33:28.792Z,8.69
2022-12-27T13:34:47.516Z,8.71
2022-12-27T13:36:02.485Z,8.71
2022-12-27T13:37:24.337Z,8.69
2022-12-27T13:38:35.101Z,8.71
2022-12-27T13:40:08.645Z,8.81
2022-12-27T13:41:41.935Z,8.90
2022-12-27T13:43:00.307Z,8.75
2022-12-27T13:44:19.956Z,8.78
2022-12-27T13:45:59.086Z,8.71
2022-12-27T13:47:29.806Z,8.59
2022-12-27T13:48:57.764Z,8.62
2022-12-27T13:50:20.701Z,8.50
2022-12-27T13:51:42.943Z,8.49
2022-12-27T13:53:03.754Z,8.54
2022-12-27T13:54:35.587Z,8.48
2022-12-27T13:56:14.650Z,8.46
2022-12-27T13:57:30.718Z,8.49
2022-12-27T13:58:59.717Z,8.53
2022-12-27T14:00:09.053Z,8.53
2022-12-27T14:01:31.788Z,8.48
2022-12-27T14:02:57.506Z,8.56
2022-12-27T14:04:05.677Z,8.50
2022-12-27T14:05:07.068Z,8.50
2022-12-27T14:06:48.943Z,8.50
2022-12-27T14:07:50.321Z,8.36
2022-12-27T14:09:25.600Z,8.42
2022-12-27T14:10:36.453Z,8.43
2022-12-27T14:11:46.737Z,8.45
2022-12-27T14:12:57.765Z,8.43
2022-12-27T14:14:01.961Z,8.42
2022-12-27T14:15:07.227Z,8.37
2022-12-27T14:16:31.291Z,8.36
2022-12-27T14:17:44.678Z,8.39
2022-12-27T14:19:18.598Z,8.12
2022-12-27T14:20:31.967Z,8.23
2022-12-27T14:21:55.189Z,8.26
2022-12-27T14:23:16.525Z,8.30
2022-12-27T14:24:40.223Z,8.34
2022-12-27T14:25:44.995Z,8.36
2022-12-27T14:27:04.260Z,8.25
2022-12-27T14:28:43.295Z,8.21
2022-12-27T14:30:19.147Z,8.24
2022-12-27T14:31:42.496Z,8.16
2022-12-27T14:33:02.264Z,8.15
2022-12-27T14:34:15.323Z,8.05
2022-12-27T14:35:48.290Z,8.02
2022-12-27T14:36:52.967Z,8.02
2022-12-27T14:38:22.615Z,8.07
2022-12-27T14:39:39.346Z,8.01
2022-12-27T14:40:56.850Z,8.08
2022-12-27T14:42:20.183Z,8.07
2022-12-27T14:43:21.582Z,8.02
2022-12-27T14:45:09.245Z,8.06
2022-12-27T14:46:37.167Z,8.02
2022-12-27T14:47:47.803Z,8.11
2022-12-27T14:49:10.516Z,8.16
2022-12-27T14:50:33.279Z,8.09
2022-12-27T14:52:02.435Z,8.06
2022-12-27T14:53:17.173Z,8.09
2022-12-27T14:54:46.019Z,8.07
2022-12-27T14:56:08.799Z,8.00
2022-12-27T14:57:34.698Z,8.06
2022-12-27T14:59:07.407Z,8.03
2022-12-27T15:00:22.677Z,7.97
2022-12-27T15:01:45.907Z,7.87
2022-12-27T15:03:42.779Z,7.70
2022-12-27T15:05:01.699Z,7.73
2022-12-27T15:06:12.263Z,7.74
2022-12-27T15:07:35.136Z,7.63
2022-12-27T15:09:07.626Z,7.64
2022-12-27T15:10:12.022Z,7.65
2022-12-27T15:11:38.333Z,7.59
2022-12-27T15:12:45.646Z,7.67
2022-12-27T15:14:11.816Z,7.72
2022-12-27T15:15:44.480Z,7.69
2022-12-27T15:16:58.788Z,7.55
2022-12-27T15:18:12.435Z,7.54
2022-12-27T15:19:30.461Z,7.40
2022-12-27T15:20:47.317Z,7.44
2022-12-27T15:22:11.885Z,7.40
2022-12-27T15:23:34.615Z,7.47
2022-12-27T15:24:45.154Z,7.42
2022-12-27T15:25:59.733Z,7.48
2022-12-27T15:27:26.062Z,7.43
2022-12-27T15:28:42.879Z,7.46
2022-12-27T15:29:57.758Z,7.47
2022-12-27T15:31:06.910Z,7.41
2022-12-27T15:32:26.808Z,7.36
2022-12-27T15:33:38.564Z,7.37
2022-12-27T15:35:25.128Z,7.28
2022-12-27T15:36:44.913Z,7.27
2022-12-27T15:38:04.623Z,7.32
2022-12-27T15:39:26.550Z,7.34
2022-12-27T15:40:33.891Z,7.33
2022-12-27T15:41:43.788Z,7.35
2022-12-27T15:43:27.148Z,7.32